Weather at Candaraman Island

Public forecast

Using degrees Celsius for public forecast. Weather courtesy of forecast.io.

Closest aviation weather report (METAR) to Candaraman Island

Closest report is Kudat Airport, 71.0 nm (131.6 km) SSW. Retrieved 2022/08/14 16:00 UTC (36 minutes ago):

WBKT 141600Z 00000KT 9999 FEW014 25/24 Q1010

Closest aviation forecast (TAF) to Candaraman Island

Closest forecast is Puerto Princesa Airport, 140.0 nm (259.2 km) NE. Retrieved 2022/08/14 12:00 UTC (5 hours ago):

TAF RPVP 141100Z 1412/1512 24008KT 9999 FEW019 BKN080 TEMPO 1412/1418 27005KT -TSRA FEW017CB SCT019 OVC080